Robyn J — WTQ4065 — position and weather

sailwx.info

Track history (hours):
 
Tides and Currents Weather Stations Pressure Air Temp Water Temp Dewpoint Dewpoint Depression Visibility Wind Speed Wind Dir Waves Ship Positions

Robyn J

Owner: JANKOVICH, TOM J, SAN PEDRO, CA. More information available from US FCC via Universal Licensing System and Coast Guard Vessel Documentation Center.

Last reported at 2017-Sep-24 06:30 UTC. Time now 2017-Sep-24 06:57 UTC.
Position N 32°42' W 117°10'.

Length 36 m; draft 3 m.

Type: Tow > 200 m length. MMSI: 367006770.

Date/timePositionNaut miles runAvg speedWind from/ knotsBaromVisibWave heightAir tempDewpointWater temp
2017-Sep-24 06:30N 32°42' W 117°10'  
2017-Sep-22 02:00N 33°44' W 118°16'4 7.7
2017-Sep-22 01:30N 33°44' W 118°12'1 2.9
2017-Sep-22 01:00N 33°44' W 118°10'4 7.6
2017-Sep-22 00:30N 33°43' W 118°14'2 3.5
2017-Sep-21 23:58N 33°44' W 118°17'0 0.0
2017-Sep-21 23:30N 33°44' W 118°17'0 0.0
2017-Sep-21 22:58N 33°44' W 118°17'0 0.1
2017-Sep-21 22:29N 33°44' W 118°16'1 1.9
2017-Sep-21 21:55N 33°45' W 118°16'1 2.2
2017-Sep-21 21:30N 33°46' W 118°16'0 0.0
2017-Sep-21 20:58N 33°46' W 118°16'0 0.0
2017-Sep-21 20:30N 33°46' W 118°16'0 0.0
2017-Sep-21 20:00N 33°46' W 118°16'0 0.0
2017-Sep-21 19:30N 33°46' W 118°16'0 0.0
2017-Sep-21 19:00N 33°46' W 118°16'0 0.0
2017-Sep-21 18:30N 33°46' W 118°16'0 0.0
2017-Sep-21 18:00N 33°46' W 118°16'0 0.0
2017-Sep-21 17:28N 33°46' W 118°16'0 0.0
2017-Sep-21 17:00N 33°46' W 118°16'0 0.0
2017-Sep-21 16:30N 33°46' W 118°16'0 0.0
2017-Sep-21 15:55N 33°46' W 118°16'0 0.0
2017-Sep-21 15:27N 33°46' W 118°16'0 0.1
2017-Sep-21 14:55N 33°46' W 118°16'0 1.0
2017-Sep-21 14:30N 33°45' W 118°16'2 4.4
2017-Sep-21 14:00N 33°43' W 118°16'0 0.3
2017-Sep-21 13:25N 33°43' W 118°16'3 5.1
2017-Sep-21 12:53N 33°41' W 118°13'3 5.5
2017-Sep-21 12:25N 33°39' W 118°11'2 5.2
2017-Sep-21 11:57N 33°38' W 118°09'3 5.1
2017-Sep-21 11:19N 33°35' W 118°07'5 5.4
2017-Sep-21 10:27N 33°31' W 118°03'2 5.3
2017-Sep-21 10:00N 33°29' W 118°02'3 5.3
2017-Sep-21 09:30N 33°27' W 117°60'3 5.4
2017-Sep-21 09:00N 33°25' W 117°58'3 5.6
2017-Sep-21 08:30N 33°23' W 117°56'3 5.8
2017-Sep-21 08:00N 33°21' W 117°54'3 5.6
2017-Sep-21 07:30N 33°18' W 117°52'3 5.5
2017-Sep-21 07:00N 33°16' W 117°50'3 5.5
2017-Sep-21 06:30N 33°14' W 117°48'3 5.4
2017-Sep-21 06:00N 33°12' W 117°46'3 5.4
2017-Sep-21 05:30N 33°10' W 117°44'3 5.4
2017-Sep-21 05:00N 33°08' W 117°42'3 5.7
2017-Sep-21 04:30N 33°05' W 117°40'3 6.5
2017-Sep-21 04:00N 33°03' W 117°37'3 6.4
2017-Sep-21 03:31N 33°00' W 117°35'3 6.4
2017-Sep-21 03:00N 32°58' W 117°33'3 6.3
2017-Sep-21 02:30N 32°55' W 117°31'3 6.1
2017-Sep-21 02:00N 32°53' W 117°28'3 5.9
2017-Sep-21 01:30N 32°50' W 117°26'3 5.9
2017-Sep-21 01:00N 32°48' W 117°24'3 5.7
2017-Sep-21 00:30N 32°46' W 117°22'3 5.8
2017-Sep-21 00:00N 32°43' W 117°20'3 5.7
2017-Sep-20 23:30N 32°41' W 117°18'3 5.8
2017-Sep-20 23:00N 32°39' W 117°16'2 3.8
2017-Sep-20 22:30N 32°39' W 117°13'4 7.1
2017-Sep-20 22:00N 32°42' W 117°14'4 5.1
2017-Sep-20 21:13N 32°42' W 117°09'2 6.8
2017-Sep-20 20:54N 32°40' W 117°08'0 1.0
2017-Sep-20 20:29N 32°39' W 117°07'0 0.0
2017-Sep-20 19:53N 32°39' W 117°07'0 0.0
2017-Sep-20 19:26N 32°39' W 117°07'0 0.0
2017-Sep-20 19:00N 32°39' W 117°07'0 0.0
2017-Sep-20 18:30N 32°39' W 117°07'0 0.0
2017-Sep-20 18:00N 32°39' W 117°07'0 0.0
2017-Sep-20 17:30N 32°39' W 117°07'0 0.0
2017-Sep-20 16:59N 32°39' W 117°07'0 0.0
2017-Sep-20 16:27N 32°39' W 117°07'0 0.9
2017-Sep-20 16:00N 32°40' W 117°07'0 0.8
2017-Sep-20 15:30N 32°39' W 117°07'0 0.0
2017-Sep-20 14:56N 32°39' W 117°07'  
2017-Sep-17 18:30N 32°42' W 117°09'2 1.1
2017-Sep-17 17:03N 32°43' W 117°11'0 0.1
2017-Sep-17 16:58N 32°43' W 117°11'0 0.0
2017-Sep-17 15:53N 32°43' W 117°11'0 0.0
2017-Sep-17 15:24N 32°43' W 117°11'0 0.0
2017-Sep-17 14:27N 32°43' W 117°11'0 0.2
2017-Sep-17 14:00N 32°43' W 117°11'1 0.0
2017-Sep-16 11:29N 32°42' W 117°10'2 3.4
2017-Sep-16 11:00N 32°43' W 117°12'3 5.5
2017-Sep-16 10:30N 32°41' W 117°14'3 5.6
2017-Sep-16 10:00N 32°38' W 117°14'2 4.9
2017-Sep-16 09:30N 32°36' W 117°16'3 6.5
2017-Sep-16 09:01N 32°39' W 117°19'3 6.5
2017-Sep-16 08:30N 32°41' W 117°21'3 6.4
2017-Sep-16 08:00N 32°44' W 117°23'3 6.3
2017-Sep-16 07:30N 32°46' W 117°26'3 6.2
2017-Sep-16 07:00N 32°49' W 117°28'3 6.1
2017-Sep-16 06:30N 32°51' W 117°30'3 5.9
2017-Sep-16 06:00N 32°53' W 117°32'3 5.9
2017-Sep-16 05:31N 32°56' W 117°35'3 5.8
2017-Sep-16 05:00N 32°58' W 117°37'3 6.1
2017-Sep-16 04:30N 33°00' W 117°39'3 5.9
2017-Sep-16 04:00N 33°03' W 117°41'3 5.8
2017-Sep-16 03:30N 33°05' W 117°43'3 6.1
2017-Sep-16 03:00N 33°08' W 117°45'3 6.5
2017-Sep-16 02:30N 33°11' W 117°47'3 6.6
2017-Sep-16 02:00N 33°14' W 117°49'3 6.6
2017-Sep-16 01:30N 33°16' W 117°51'3 6.5
2017-Sep-16 01:00N 33°19' W 117°53'3 6.5
2017-Sep-16 00:30N 33°22' W 117°55'3 6.5
2017-Sep-16 00:00N 33°24' W 117°57'3 6.6
2017-Sep-15 23:30N 33°27' W 117°60'3 6.8
2017-Sep-15 23:00N 33°30' W 118°02'4 6.8
2017-Sep-15 22:27N 33°33' W 118°05'3 6.6
2017-Sep-15 21:58N 33°35' W 118°07'3 6.6
2017-Sep-15 21:29N 33°38' W 118°10'3 6.6
2017-Sep-15 21:00N 33°40' W 118°12'3 6.3
2017-Sep-15 20:30N 33°42' W 118°15'2 3.4
2017-Sep-15 19:58N 33°44' W 118°16'0 0.6
2017-Sep-15 19:30N 33°44' W 118°17'1 1.6
2017-Sep-15 19:00N 33°43' W 118°16'4 8.0
2017-Sep-15 18:27N 33°45' W 118°11'1 2.4
2017-Sep-15 17:59N 33°44' W 118°11'3 5.5
2017-Sep-15 17:30N 33°46' W 118°13'0 0.9
2017-Sep-15 16:59N 33°46' W 118°13'2 2.9
2017-Sep-15 16:24N 33°45' W 118°12'1 3.4
2017-Sep-15 15:58N 33°44' W 118°13'3 5.5
2017-Sep-15 15:29N 33°43' W 118°16'0 0.9
2017-Sep-15 14:59N 33°44' W 118°17'4 7.8
2017-Sep-15 14:28N 33°44' W 118°12'2 3.2
2017-Sep-15 13:59N 33°45' W 118°13'1 2.7
2017-Sep-15 13:27N 33°46' W 118°13'0 0.0
2017-Sep-15 13:00N 33°46' W 118°13'2 3.8
2017-Sep-15 12:30N 33°44' W 118°13'3 5.5
2017-Sep-15 12:00N 33°43' W 118°16'0 0.6
2017-Sep-15 11:26N 33°44' W 118°17'0 0.1
2017-Sep-15 11:00N 33°44' W 118°17'0 0.0
2017-Sep-15 10:29N 33°44' W 118°17'0 0.0
2017-Sep-15 09:58N 33°44' W 118°17'0 0.0
2017-Sep-15 09:30N 33°44' W 118°17'0 0.0
2017-Sep-15 08:59N 33°44' W 118°17'0 0.0
2017-Sep-15 08:30N 33°44' W 118°17'0 0.0
2017-Sep-15 07:59N 33°44' W 118°17'0 0.0
2017-Sep-15 07:30N 33°44' W 118°17'0 0.0
2017-Sep-15 07:00N 33°44' W 118°17'0 0.0
2017-Sep-15 06:29N 33°44' W 118°17'0 0.0
2017-Sep-15 06:00N 33°44' W 118°17'0 0.0
2017-Sep-15 05:29N 33°44' W 118°17'0 0.0
2017-Sep-15 05:00N 33°44' W 118°17'0 0.0
2017-Sep-15 04:29N 33°44' W 118°17'0 0.0
2017-Sep-15 04:00N 33°44' W 118°17'0 0.0
2017-Sep-15 03:28N 33°44' W 118°17'0 0.1
2017-Sep-15 02:59N 33°44' W 118°17'0 0.1
2017-Sep-15 02:29N 33°44' W 118°17'0 0.0
2017-Sep-15 01:58N 33°44' W 118°17'0 0.0
2017-Sep-15 01:30N 33°44' W 118°17'0 0.0
2017-Sep-15 00:59N 33°44' W 118°17'0 0.0
2017-Sep-15 00:28N 33°44' W 118°17'0 0.5
2017-Sep-15 00:00N 33°44' W 118°16'0 0.4
2017-Sep-14 23:30N 33°44' W 118°17'0 0.0
2017-Sep-14 23:00N 33°44' W 118°17'0 0.0
2017-Sep-14 22:27N 33°44' W 118°17'0 0.0
2017-Sep-14 22:00N 33°44' W 118°17'0 0.0
2017-Sep-14 21:30N 33°44' W 118°17'0 0.0
2017-Sep-14 21:00N 33°44' W 118°17'0 0.0
2017-Sep-14 20:30N 33°44' W 118°17'0 0.0
2017-Sep-14 20:00N 33°44' W 118°17'0 0.0
2017-Sep-14 19:30N 33°44' W 118°17'0 0.0
2017-Sep-14 19:00N 33°44' W 118°17'0 0.0
2017-Sep-14 18:30N 33°44' W 118°17'0 0.0
2017-Sep-14 18:00N 33°44' W 118°17'0 0.0
2017-Sep-14 17:30N 33°44' W 118°17'0 0.0
2017-Sep-14 17:00N 33°44' W 118°17'0 0.0
2017-Sep-14 16:30N 33°44' W 118°17'0 0.0
2017-Sep-14 16:00N 33°44' W 118°17'0 0.0
2017-Sep-14 15:30N 33°44' W 118°17'0 0.0
2017-Sep-14 15:00N 33°44' W 118°17'0 0.0
2017-Sep-14 14:29N 33°44' W 118°17'0 0.0
2017-Sep-14 13:59N 33°44' W 118°17'0 0.0
2017-Sep-14 13:30N 33°44' W 118°17'0 0.0
2017-Sep-14 12:56N 33°44' W 118°17'0 0.0
2017-Sep-14 12:28N 33°44' W 118°17'0 0.0
2017-Sep-14 11:59N 33°44' W 118°17'1 1.3
2017-Sep-14 11:30N 33°44' W 118°17'1 1.2
2017-Sep-14 11:00N 33°45' W 118°16'1 2.1
2017-Sep-14 10:28N 33°44' W 118°16'0 0.0
2017-Sep-14 09:58N 33°44' W 118°16'0 0.0
2017-Sep-14 09:30N 33°44' W 118°16'0 0.0
2017-Sep-14 08:56N 33°44' W 118°16'0 0.0
2017-Sep-14 08:27N 33°44' W 118°16'0 0.0
2017-Sep-14 07:58N 33°44' W 118°16'0 0.0
2017-Sep-14 07:30N 33°44' W 118°16'0 0.0
2017-Sep-14 07:00N 33°44' W 118°16'0 0.0
2017-Sep-14 06:30N 33°44' W 118°16'  
Track history (hours):
 
Tides and Currents Weather Stations Pressure Air Temp Water Temp Dewpoint Dewpoint Depression Visibility Wind Speed Wind Dir Waves Ship Positions

Robyn J

Owner: JANKOVICH, TOM J, SAN PEDRO, CA. More information available from US FCC via Universal Licensing System and Coast Guard Vessel Documentation Center.

Last reported at 2017-Sep-24 06:30 UTC. Time now 2017-Sep-24 06:57 UTC.
Position N 32°42' W 117°10'.

Length 36 m; draft 3 m.

Type: Tow > 200 m length. MMSI: 367006770.

Date/timePositionNaut miles runAvg speedWind from/ knotsBaromVisibWave heightAir tempDewpointWater temp
2017-Sep-24 06:30N 32°42' W 117°10'  
2017-Sep-22 02:00N 33°44' W 118°16'4 7.7
2017-Sep-22 01:30N 33°44' W 118°12'1 2.9
2017-Sep-22 01:00N 33°44' W 118°10'4 7.6
2017-Sep-22 00:30N 33°43' W 118°14'2 3.5
2017-Sep-21 23:58N 33°44' W 118°17'0 0.0
2017-Sep-21 23:30N 33°44' W 118°17'0 0.0
2017-Sep-21 22:58N 33°44' W 118°17'0 0.1
2017-Sep-21 22:29N 33°44' W 118°16'1 1.9
2017-Sep-21 21:55N 33°45' W 118°16'1 2.2
2017-Sep-21 21:30N 33°46' W 118°16'0 0.0
2017-Sep-21 20:58N 33°46' W 118°16'0 0.0
2017-Sep-21 20:30N 33°46' W 118°16'0 0.0
2017-Sep-21 20:00N 33°46' W 118°16'0 0.0
2017-Sep-21 19:30N 33°46' W 118°16'0 0.0
2017-Sep-21 19:00N 33°46' W 118°16'0 0.0
2017-Sep-21 18:30N 33°46' W 118°16'0 0.0
2017-Sep-21 18:00N 33°46' W 118°16'0 0.0
2017-Sep-21 17:28N 33°46' W 118°16'0 0.0
2017-Sep-21 17:00N 33°46' W 118°16'0 0.0
2017-Sep-21 16:30N 33°46' W 118°16'0 0.0
2017-Sep-21 15:55N 33°46' W 118°16'0 0.0
2017-Sep-21 15:27N 33°46' W 118°16'0 0.1
2017-Sep-21 14:55N 33°46' W 118°16'0 1.0
2017-Sep-21 14:30N 33°45' W 118°16'2 4.4
2017-Sep-21 14:00N 33°43' W 118°16'0 0.3
2017-Sep-21 13:25N 33°43' W 118°16'3 5.1
2017-Sep-21 12:53N 33°41' W 118°13'3 5.5
2017-Sep-21 12:25N 33°39' W 118°11'2 5.2
2017-Sep-21 11:57N 33°38' W 118°09'3 5.1
2017-Sep-21 11:19N 33°35' W 118°07'5 5.4
2017-Sep-21 10:27N 33°31' W 118°03'2 5.3
2017-Sep-21 10:00N 33°29' W 118°02'3 5.3
2017-Sep-21 09:30N 33°27' W 117°60'3 5.4
2017-Sep-21 09:00N 33°25' W 117°58'3 5.6
2017-Sep-21 08:30N 33°23' W 117°56'3 5.8
2017-Sep-21 08:00N 33°21' W 117°54'3 5.6
2017-Sep-21 07:30N 33°18' W 117°52'3 5.5
2017-Sep-21 07:00N 33°16' W 117°50'3 5.5
2017-Sep-21 06:30N 33°14' W 117°48'3 5.4
2017-Sep-21 06:00N 33°12' W 117°46'3 5.4
2017-Sep-21 05:30N 33°10' W 117°44'3 5.4
2017-Sep-21 05:00N 33°08' W 117°42'3 5.7
2017-Sep-21 04:30N 33°05' W 117°40'3 6.5
2017-Sep-21 04:00N 33°03' W 117°37'3 6.4
2017-Sep-21 03:31N 33°00' W 117°35'3 6.4
2017-Sep-21 03:00N 32°58' W 117°33'3 6.3
2017-Sep-21 02:30N 32°55' W 117°31'3 6.1
2017-Sep-21 02:00N 32°53' W 117°28'3 5.9
2017-Sep-21 01:30N 32°50' W 117°26'3 5.9
2017-Sep-21 01:00N 32°48' W 117°24'3 5.7
2017-Sep-21 00:30N 32°46' W 117°22'3 5.8
2017-Sep-21 00:00N 32°43' W 117°20'3 5.7
2017-Sep-20 23:30N 32°41' W 117°18'3 5.8
2017-Sep-20 23:00N 32°39' W 117°16'2 3.8
2017-Sep-20 22:30N 32°39' W 117°13'4 7.1
2017-Sep-20 22:00N 32°42' W 117°14'4 5.1
2017-Sep-20 21:13N 32°42' W 117°09'2 6.8
2017-Sep-20 20:54N 32°40' W 117°08'0 1.0
2017-Sep-20 20:29N 32°39' W 117°07'0 0.0
2017-Sep-20 19:53N 32°39' W 117°07'0 0.0
2017-Sep-20 19:26N 32°39' W 117°07'0 0.0
2017-Sep-20 19:00N 32°39' W 117°07'0 0.0
2017-Sep-20 18:30N 32°39' W 117°07'0 0.0
2017-Sep-20 18:00N 32°39' W 117°07'0 0.0
2017-Sep-20 17:30N 32°39' W 117°07'0 0.0
2017-Sep-20 16:59N 32°39' W 117°07'0 0.0
2017-Sep-20 16:27N 32°39' W 117°07'0 0.9
2017-Sep-20 16:00N 32°40' W 117°07'0 0.8
2017-Sep-20 15:30N 32°39' W 117°07'0 0.0
2017-Sep-20 14:56N 32°39' W 117°07'  
2017-Sep-17 18:30N 32°42' W 117°09'2 1.1
2017-Sep-17 17:03N 32°43' W 117°11'0 0.1
2017-Sep-17 16:58N 32°43' W 117°11'0 0.0
2017-Sep-17 15:53N 32°43' W 117°11'0 0.0
2017-Sep-17 15:24N 32°43' W 117°11'0 0.0
2017-Sep-17 14:27N 32°43' W 117°11'0 0.2
2017-Sep-17 14:00N 32°43' W 117°11'1 0.0
2017-Sep-16 11:29N 32°42' W 117°10'2 3.4
2017-Sep-16 11:00N 32°43' W 117°12'3 5.5
2017-Sep-16 10:30N 32°41' W 117°14'3 5.6
2017-Sep-16 10:00N 32°38' W 117°14'2 4.9
2017-Sep-16 09:30N 32°36' W 117°16'3 6.5
2017-Sep-16 09:01N 32°39' W 117°19'3 6.5
2017-Sep-16 08:30N 32°41' W 117°21'3 6.4
2017-Sep-16 08:00N 32°44' W 117°23'3 6.3
2017-Sep-16 07:30N 32°46' W 117°26'3 6.2
2017-Sep-16 07:00N 32°49' W 117°28'3 6.1
2017-Sep-16 06:30N 32°51' W 117°30'3 5.9
2017-Sep-16 06:00N 32°53' W 117°32'3 5.9
2017-Sep-16 05:31N 32°56' W 117°35'3 5.8
2017-Sep-16 05:00N 32°58' W 117°37'3 6.1
2017-Sep-16 04:30N 33°00' W 117°39'3 5.9
2017-Sep-16 04:00N 33°03' W 117°41'3 5.8
2017-Sep-16 03:30N 33°05' W 117°43'3 6.1
2017-Sep-16 03:00N 33°08' W 117°45'3 6.5
2017-Sep-16 02:30N 33°11' W 117°47'3 6.6
2017-Sep-16 02:00N 33°14' W 117°49'3 6.6
2017-Sep-16 01:30N 33°16' W 117°51'3 6.5
2017-Sep-16 01:00N 33°19' W 117°53'3 6.5
2017-Sep-16 00:30N 33°22' W 117°55'3 6.5
2017-Sep-16 00:00N 33°24' W 117°57'3 6.6
2017-Sep-15 23:30N 33°27' W 117°60'3 6.8
2017-Sep-15 23:00N 33°30' W 118°02'4 6.8
2017-Sep-15 22:27N 33°33' W 118°05'3 6.6
2017-Sep-15 21:58N 33°35' W 118°07'3 6.6
2017-Sep-15 21:29N 33°38' W 118°10'3 6.6
2017-Sep-15 21:00N 33°40' W 118°12'3 6.3
2017-Sep-15 20:30N 33°42' W 118°15'2 3.4
2017-Sep-15 19:58N 33°44' W 118°16'0 0.6
2017-Sep-15 19:30N 33°44' W 118°17'1 1.6
2017-Sep-15 19:00N 33°43' W 118°16'4 8.0
2017-Sep-15 18:27N 33°45' W 118°11'1 2.4
2017-Sep-15 17:59N 33°44' W 118°11'3 5.5
2017-Sep-15 17:30N 33°46' W 118°13'0 0.9
2017-Sep-15 16:59N 33°46' W 118°13'2 2.9
2017-Sep-15 16:24N 33°45' W 118°12'1 3.4
2017-Sep-15 15:58N 33°44' W 118°13'3 5.5
2017-Sep-15 15:29N 33°43' W 118°16'0 0.9
2017-Sep-15 14:59N 33°44' W 118°17'4 7.8
2017-Sep-15 14:28N 33°44' W 118°12'2 3.2
2017-Sep-15 13:59N 33°45' W 118°13'1 2.7
2017-Sep-15 13:27N 33°46' W 118°13'0 0.0
2017-Sep-15 13:00N 33°46' W 118°13'2 3.8
2017-Sep-15 12:30N 33°44' W 118°13'3 5.5
2017-Sep-15 12:00N 33°43' W 118°16'0 0.6
2017-Sep-15 11:26N 33°44' W 118°17'0 0.1
2017-Sep-15 11:00N 33°44' W 118°17'0 0.0
2017-Sep-15 10:29N 33°44' W 118°17'0 0.0
2017-Sep-15 09:58N 33°44' W 118°17'0 0.0
2017-Sep-15 09:30N 33°44' W 118°17'0 0.0
2017-Sep-15 08:59N 33°44' W 118°17'0 0.0
2017-Sep-15 08:30N 33°44' W 118°17'0 0.0
2017-Sep-15 07:59N 33°44' W 118°17'0 0.0
2017-Sep-15 07:30N 33°44' W 118°17'0 0.0
2017-Sep-15 07:00N 33°44' W 118°17'0 0.0
2017-Sep-15 06:29N 33°44' W 118°17'0 0.0
2017-Sep-15 06:00N 33°44' W 118°17'0 0.0
2017-Sep-15 05:29N 33°44' W 118°17'0 0.0
2017-Sep-15 05:00N 33°44' W 118°17'0 0.0
2017-Sep-15 04:29N 33°44' W 118°17'0 0.0
2017-Sep-15 04:00N 33°44' W 118°17'0 0.0
2017-Sep-15 03:28N 33°44' W 118°17'0 0.1
2017-Sep-15 02:59N 33°44' W 118°17'0 0.1
2017-Sep-15 02:29N 33°44' W 118°17'0 0.0
2017-Sep-15 01:58N 33°44' W 118°17'0 0.0
2017-Sep-15 01:30N 33°44' W 118°17'0 0.0
2017-Sep-15 00:59N 33°44' W 118°17'0 0.0
2017-Sep-15 00:28N 33°44' W 118°17'0 0.5
2017-Sep-15 00:00N 33°44' W 118°16'0 0.4
2017-Sep-14 23:30N 33°44' W 118°17'0 0.0
2017-Sep-14 23:00N 33°44' W 118°17'0 0.0
2017-Sep-14 22:27N 33°44' W 118°17'0 0.0
2017-Sep-14 22:00N 33°44' W 118°17'0 0.0
2017-Sep-14 21:30N 33°44' W 118°17'0 0.0
2017-Sep-14 21:00N 33°44' W 118°17'0 0.0
2017-Sep-14 20:30N 33°44' W 118°17'0 0.0
2017-Sep-14 20:00N 33°44' W 118°17'0 0.0
2017-Sep-14 19:30N 33°44' W 118°17'0 0.0
2017-Sep-14 19:00N 33°44' W 118°17'0 0.0
2017-Sep-14 18:30N 33°44' W 118°17'0 0.0
2017-Sep-14 18:00N 33°44' W 118°17'0 0.0
2017-Sep-14 17:30N 33°44' W 118°17'0 0.0
2017-Sep-14 17:00N 33°44' W 118°17'0 0.0
2017-Sep-14 16:30N 33°44' W 118°17'0 0.0
2017-Sep-14 16:00N 33°44' W 118°17'0 0.0
2017-Sep-14 15:30N 33°44' W 118°17'0 0.0
2017-Sep-14 15:00N 33°44' W 118°17'0 0.0
2017-Sep-14 14:29N 33°44' W 118°17'0 0.0
2017-Sep-14 13:59N 33°44' W 118°17'0 0.0
2017-Sep-14 13:30N 33°44' W 118°17'0 0.0
2017-Sep-14 12:56N 33°44' W 118°17'0 0.0
2017-Sep-14 12:28N 33°44' W 118°17'0 0.0
2017-Sep-14 11:59N 33°44' W 118°17'1 1.3
2017-Sep-14 11:30N 33°44' W 118°17'1 1.2
2017-Sep-14 11:00N 33°45' W 118°16'1 2.1
2017-Sep-14 10:28N 33°44' W 118°16'0 0.0
2017-Sep-14 09:58N 33°44' W 118°16'0 0.0
2017-Sep-14 09:30N 33°44' W 118°16'0 0.0
2017-Sep-14 08:56N 33°44' W 118°16'0 0.0
2017-Sep-14 08:27N 33°44' W 118°16'0 0.0
2017-Sep-14 07:58N 33°44' W 118°16'0 0.0
2017-Sep-14 07:30N 33°44' W 118°16'0 0.0
2017-Sep-14 07:00N 33°44' W 118°16'0 0.0
2017-Sep-14 06:30N 33°44' W 118°16'  

Dump ship's entire track history